Time;durP1;ratioP1;P1;durP2;ratioP2;P2;SDS_P1;SDS_P2;PMS_P1;PMS_P2;Temp;Humidity;BMP_temperature;BMP_pressure;BME280_temperature;BME280_humidity;BME280_pressure;Samples;Min_cycle;Max_cycle;Signal;HPM_P1;HPM_P2
2023/05/19 00:00:07;;;;;;;9.27;3.90;;;;;;;;;;6184629;28;20133;-63
2023/05/19 00:03:27;;;;;;;9.43;4.45;;;;;;;;;;6210350;28;20049;-61
2023/05/19 00:06:31;;;;;;;6.78;3.83;;;;;;;;;;6185413;28;20038;-63
2023/05/19 00:09:31;;;;;;;7.63;4.03;;;;;;;;;;6182980;28;20050;-63
2023/05/19 00:12:32;;;;;;;11.18;4.38;;;;;;;;;;6185472;28;20058;-62
2023/05/19 00:15:33;;;;;;;9.30;4.40;;;;;;;;;;6187881;28;20101;-62
2023/05/19 00:18:34;;;;;;;8.63;4.38;;;;;;;;;;6185165;28;20046;-63
2023/05/19 00:21:36;;;;;;;7.60;3.97;;;;;;;;;;6184295;28;20061;-62
2023/05/19 00:24:37;;;;;;;10.65;4.45;;;;;;;;;;6182723;28;20462;-62
2023/05/19 00:27:38;;;;;;;8.60;3.97;;;;;;;;;;6183221;28;20043;-63
2023/05/19 00:30:39;;;;;;;8.48;4.43;;;;;;;;;;6182650;28;20054;-62
2023/05/19 00:33:39;;;;;;;7.90;4.45;;;;;;;;;;6184807;28;20058;-62
2023/05/19 00:36:40;;;;;;;10.35;4.50;;;;;;;;;;6182976;28;20050;-61
2023/05/19 00:39:41;;;;;;;7.53;4.28;;;;;;;;;;6182991;28;20043;-62
2023/05/19 00:42:41;;;;;;;8.45;4.65;;;;;;;;;;6182952;28;20042;-63
2023/05/19 00:45:42;;;;;;;9.00;4.38;;;;;;;;;;6184859;28;20105;-61
2023/05/19 00:48:44;;;;;;;8.63;4.35;;;;;;;;;;6182521;28;20104;-63
2023/05/19 00:51:45;;;;;;;9.57;4.53;;;;;;;;;;6183124;28;20387;-62
2023/05/19 00:54:45;;;;;;;11.23;5.03;;;;;;;;;;6185203;28;20063;-61
2023/05/19 00:57:48;;;;;;;7.03;4.55;;;;;;;;;;6184563;28;20046;-64
2023/05/19 01:00:49;;;;;;;9.73;4.78;;;;;;;;;;6183632;28;20520;-62
2023/05/19 01:03:50;;;;;;;8.05;4.63;;;;;;;;;;6183988;28;20039;-63
2023/05/19 01:06:53;;;;;;;8.18;4.40;;;;;;;;;;6181928;28;20042;-62
2023/05/19 01:09:54;;;;;;;8.55;4.72;;;;;;;;;;6184221;28;20482;-63
2023/05/19 01:12:55;;;;;;;8.80;4.82;;;;;;;;;;6185195;28;20042;-62
2023/05/19 01:16:05;;;;;;;8.40;4.80;;;;;;;;;;6183049;28;20050;-61
2023/05/19 01:19:27;;;;;;;9.90;5.28;;;;;;;;;;6185160;28;20047;-60
2023/05/19 01:22:53;;;;;;;8.27;4.97;;;;;;;;;;6184148;28;20056;-62
2023/05/19 01:26:05;;;;;;;9.98;5.55;;;;;;;;;;6184904;28;20519;-63
2023/05/19 01:29:30;;;;;;;10.70;5.55;;;;;;;;;;6188731;28;20031;-62
2023/05/19 01:32:32;;;;;;;9.05;5.20;;;;;;;;;;6192207;28;20043;-62
2023/05/19 01:35:36;;;;;;;10.90;5.63;;;;;;;;;;6190102;28;20058;-60
2023/05/19 01:38:37;;;;;;;10.98;6.30;;;;;;;;;;6177490;28;20449;-61
2023/05/19 01:41:40;;;;;;;8.00;5.30;;;;;;;;;;6189656;28;20042;-63
2023/05/19 01:44:41;;;;;;;9.15;4.97;;;;;;;;;;6185127;28;20574;-62
2023/05/19 01:47:45;;;;;;;8.35;5.13;;;;;;;;;;6188539;28;20050;-62
2023/05/19 01:50:46;;;;;;;10.68;5.35;;;;;;;;;;6187341;28;20050;-62
2023/05/19 01:53:46;;;;;;;9.88;5.20;;;;;;;;;;6185199;28;20061;-62
2023/05/19 01:57:18;;;;;;;7.95;5.22;;;;;;;;;;6185447;28;20042;-62
2023/05/19 02:00:36;;;;;;;9.27;4.60;;;;;;;;;;6187802;28;20049;-62
2023/05/19 02:03:42;;;;;;;11.07;5.38;;;;;;;;;;6188254;28;20405;-62
2023/05/19 02:06:48;;;;;;;11.55;5.22;;;;;;;;;;6184781;28;20042;-62
2023/05/19 02:10:02;;;;;;;8.85;5.00;;;;;;;;;;6185877;28;20053;-62
2023/05/19 02:13:05;;;;;;;10.45;4.88;;;;;;;;;;6187873;28;20434;-61
2023/05/19 02:16:07;;;;;;;8.82;5.03;;;;;;;;;;6187899;28;20057;-62
2023/05/19 02:19:25;;;;;;;11.48;4.93;;;;;;;;;;6189091;28;20108;-62
2023/05/19 02:22:26;;;;;;;9.57;4.78;;;;;;;;;;6191763;28;20446;-61
2023/05/19 02:25:27;;;;;;;9.88;4.63;;;;;;;;;;6187587;28;20046;-61
2023/05/19 02:28:27;;;;;;;11.20;5.20;;;;;;;;;;6187146;28;20129;-63
2023/05/19 02:31:28;;;;;;;8.77;4.80;;;;;;;;;;6185575;28;20552;-61
2023/05/19 02:34:29;;;;;;;9.73;4.93;;;;;;;;;;6185754;28;20177;-62
2023/05/19 02:37:31;;;;;;;8.88;4.93;;;;;;;;;;6186233;28;20050;-62
2023/05/19 02:40:32;;;;;;;10.80;4.72;;;;;;;;;;6186863;28;20035;-62
2023/05/19 02:43:32;;;;;;;13.57;5.65;;;;;;;;;;6187114;28;20050;-60
2023/05/19 02:46:33;;;;;;;13.38;5.72;;;;;;;;;;6188017;28;20488;-62
2023/05/19 02:49:34;;;;;;;11.65;5.93;;;;;;;;;;6186425;28;20050;-62
2023/05/19 02:52:35;;;;;;;11.32;6.20;;;;;;;;;;6185641;28;20456;-62
2023/05/19 02:55:36;;;;;;;14.98;7.20;;;;;;;;;;6187960;28;20402;-62
2023/05/19 02:58:37;;;;;;;12.77;7.60;;;;;;;;;;6186718;28;20145;-62
2023/05/19 03:01:39;;;;;;;11.65;6.85;;;;;;;;;;6185604;28;20050;-61
2023/05/19 03:04:42;;;;;;;;;;;;;;;;;;6186930;28;20050;-62
2023/05/19 03:07:43;;;;;;;12.90;6.78;;;;;;;;;;6184679;28;19922;-62
2023/05/19 03:10:44;;;;;;;14.93;7.47;;;;;;;;;;6183068;28;20116;-61
2023/05/19 03:13:45;;;;;;;14.18;7.88;;;;;;;;;;6186511;28;20045;-62
2023/05/19 03:16:47;;;;;;;14.82;8.57;;;;;;;;;;6186615;28;20046;-62
2023/05/19 03:19:47;;;;;;;18.05;9.45;;;;;;;;;;6184935;28;20137;-61
2023/05/19 03:22:49;;;;;;;15.68;9.32;;;;;;;;;;6188550;28;20073;-61
2023/05/19 03:25:49;;;;;;;15.55;8.98;;;;;;;;;;6188731;28;20057;-61
2023/05/19 03:28:50;;;;;;;17.13;10.65;;;;;;;;;;6187318;28;20498;-62
2023/05/19 03:31:51;;;;;;;17.55;10.05;;;;;;;;;;6189146;28;20046;-62
2023/05/19 03:34:51;;;;;;;14.88;8.40;;;;;;;;;;6188864;28;20437;-62
2023/05/19 03:37:52;;;;;;;14.00;7.88;;;;;;;;;;6185596;28;20453;-60
2023/05/19 03:40:53;;;;;;;13.63;7.97;;;;;;;;;;6186955;28;20382;-62
2023/05/19 03:43:53;;;;;;;13.85;8.20;;;;;;;;;;6186463;28;20057;-62
2023/05/19 03:46:54;;;;;;;14.48;8.88;;;;;;;;;;6186068;28;20137;-62
2023/05/19 03:49:54;;;;;;;13.35;7.80;;;;;;;;;;6184404;28;20072;-61
2023/05/19 03:52:55;;;;;;;15.05;8.70;;;;;;;;;;6185838;28;20069;-63
2023/05/19 03:55:56;;;;;;;16.35;7.50;;;;;;;;;;6186370;28;20057;-62
2023/05/19 03:58:57;;;;;;;12.63;7.63;;;;;;;;;;6184647;28;20068;-62
2023/05/19 04:01:57;;;;;;;11.27;5.97;;;;;;;;;;6185883;28;20942;-62
2023/05/19 04:04:58;;;;;;;14.40;7.28;;;;;;;;;;6185929;28;20069;-62
2023/05/19 04:07:58;;;;;;;11.25;6.18;;;;;;;;;;6183709;28;20552;-62
2023/05/19 04:10:59;;;;;;;17.95;7.10;;;;;;;;;;6183898;28;20073;-62
2023/05/19 04:14:00;;;;;;;13.18;8.23;;;;;;;;;;6189459;28;20053;-62
2023/05/19 04:17:00;;;;;;;13.38;8.23;;;;;;;;;;6185280;28;20093;-62
2023/05/19 04:20:01;;;;;;;15.35;7.95;;;;;;;;;;6186857;28;20049;-62
2023/05/19 04:23:02;;;;;;;15.65;7.80;;;;;;;;;;6188258;28;20056;-63
2023/05/19 04:26:05;;;;;;;15.02;9.23;;;;;;;;;;6187945;28;20371;-62
2023/05/19 04:29:06;;;;;;;16.65;8.93;;;;;;;;;;6185156;28;22557;-62
2023/05/19 04:32:07;;;;;;;17.60;10.30;;;;;;;;;;6187484;28;20054;-61
2023/05/19 04:35:07;;;;;;;20.58;10.23;;;;;;;;;;6186629;28;20042;-61
2023/05/19 04:38:08;;;;;;;17.27;10.43;;;;;;;;;;6186697;28;20405;-61
2023/05/19 04:41:09;;;;;;;17.17;10.82;;;;;;;;;;6186914;28;20506;-61
2023/05/19 04:44:12;;;;;;;17.65;9.85;;;;;;;;;;6185894;28;20113;-61
2023/05/19 04:47:13;;;;;;;20.92;11.23;;;;;;;;;;6187094;28;20048;-63
2023/05/19 04:50:15;;;;;;;17.63;10.27;;;;;;;;;;6185760;28;20136;-61
2023/05/19 04:53:16;;;;;;;17.88;11.20;;;;;;;;;;6187031;28;20068;-57
2023/05/19 04:56:17;;;;;;;18.13;10.18;;;;;;;;;;6184365;28;20541;-57
2023/05/19 04:59:17;;;;;;;20.70;10.68;;;;;;;;;;6183682;28;20054;-59
2023/05/19 05:02:18;;;;;;;19.17;11.60;;;;;;;;;;6201580;28;20532;-61
2023/05/19 05:05:18;;;;;;;19.83;11.93;;;;;;;;;;6191578;28;20449;-63
2023/05/19 05:08:22;;;;;;;23.13;12.15;;;;;;;;;;6189390;28;20042;-59
2023/05/19 05:11:23;;;;;;;18.70;11.85;;;;;;;;;;6189259;28;20044;-60
2023/05/19 05:14:24;;;;;;;16.90;10.20;;;;;;;;;;6189902;28;20037;-61
2023/05/19 05:17:25;;;;;;;19.52;10.57;;;;;;;;;;6189317;28;20046;-61
2023/05/19 05:20:26;;;;;;;23.23;11.75;;;;;;;;;;6175825;28;20045;-61
2023/05/19 05:23:27;;;;;;;21.95;13.38;;;;;;;;;;6191452;28;20431;-60
2023/05/19 05:26:32;;;;;;;22.17;13.23;;;;;;;;;;6191167;28;20405;-60
2023/05/19 05:29:32;;;;;;;21.02;11.93;;;;;;;;;;6189029;28;20201;-59
2023/05/19 05:32:33;;;;;;;21.92;12.90;;;;;;;;;;6190336;28;20058;-59
2023/05/19 05:35:34;;;;;;;21.27;12.52;;;;;;;;;;6190910;28;20576;-59
2023/05/19 05:38:34;;;;;;;25.48;13.20;;;;;;;;;;6186940;28;20142;-60
2023/05/19 05:41:35;;;;;;;19.58;11.63;;;;;;;;;;6189678;28;20039;-58
2023/05/19 05:44:36;;;;;;;22.55;12.60;;;;;;;;;;6189542;28;20046;-59
2023/05/19 05:47:38;;;;;;;21.17;12.80;;;;;;;;;;6188358;28;20449;-59
2023/05/19 05:50:39;;;;;;;21.92;12.68;;;;;;;;;;6188523;28;20136;-59
2023/05/19 05:53:43;;;;;;;18.00;10.27;;;;;;;;;;6190299;28;20043;-59
2023/05/19 05:56:44;;;;;;;17.70;10.32;;;;;;;;;;6187574;28;20550;-59
2023/05/19 05:59:46;;;;;;;18.90;11.20;;;;;;;;;;6190191;28;20030;-59
2023/05/19 06:02:49;;;;;;;22.65;12.23;;;;;;;;;;6190077;28;20484;-61
2023/05/19 06:05:50;;;;;;;20.80;11.57;;;;;;;;;;6189505;28;20047;-60
2023/05/19 06:08:50;;;;;;;20.23;12.05;;;;;;;;;;6187206;28;20042;-59
2023/05/19 06:11:51;;;;;;;20.13;11.63;;;;;;;;;;6188922;28;20132;-58
2023/05/19 06:14:51;;;;;;;25.40;13.63;;;;;;;;;;6191931;28;20038;-58
2023/05/19 06:17:53;;;;;;;22.45;12.98;;;;;;;;;;6188110;28;20042;-58
2023/05/19 06:20:54;;;;;;;17.97;10.30;;;;;;;;;;6186857;28;20525;-59
2023/05/19 06:23:54;;;;;;;17.85;9.90;;;;;;;;;;6187304;28;20049;-59
2023/05/19 06:26:55;;;;;;;19.27;11.20;;;;;;;;;;6188529;28;20054;-58
2023/05/19 06:29:56;;;;;;;18.33;11.23;;;;;;;;;;6186973;28;20042;-59
2023/05/19 06:32:56;;;;;;;19.50;11.35;;;;;;;;;;6188786;28;20473;-59
2023/05/19 06:35:57;;;;;;;20.75;11.52;;;;;;;;;;6188933;28;20061;-59
2023/05/19 06:38:57;;;;;;;19.63;11.95;;;;;;;;;;6186221;28;20104;-59
2023/05/19 06:41:58;;;;;;;22.70;11.77;;;;;;;;;;6191053;28;20038;-59
2023/05/19 06:44:58;;;;;;;16.80;10.35;;;;;;;;;;6189102;28;20096;-59
2023/05/19 06:47:59;;;;;;;23.08;11.15;;;;;;;;;;6184063;28;20149;-58
2023/05/19 06:51:00;;;;;;;17.40;10.98;;;;;;;;;;6199431;28;20042;-59
2023/05/19 06:54:01;;;;;;;22.20;10.75;;;;;;;;;;6189572;28;20042;-58
2023/05/19 06:57:02;;;;;;;19.50;10.88;;;;;;;;;;6188226;28;20042;-60
2023/05/19 07:00:04;;;;;;;22.02;11.15;;;;;;;;;;6187503;28;20047;-59
2023/05/19 07:03:05;;;;;;;18.55;11.20;;;;;;;;;;6187875;28;20046;-60
2023/05/19 07:06:06;;;;;;;22.00;11.23;;;;;;;;;;6187817;28;20046;-58
2023/05/19 07:09:07;;;;;;;16.40;9.77;;;;;;;;;;6185202;28;20042;-60
2023/05/19 07:12:08;;;;;;;20.10;10.13;;;;;;;;;;6187352;28;20482;-59
2023/05/19 07:15:09;;;;;;;22.35;11.20;;;;;;;;;;6187595;28;20050;-59
2023/05/19 07:18:10;;;;;;;25.42;13.90;;;;;;;;;;6189317;28;20057;-59
2023/05/19 07:21:10;;;;;;;21.90;12.45;;;;;;;;;;6187558;28;20051;-59
2023/05/19 07:24:11;;;;;;;20.02;11.73;;;;;;;;;;6186261;28;20053;-59
2023/05/19 07:27:11;;;;;;;22.42;12.90;;;;;;;;;;6187347;28;20050;-59
2023/05/19 07:30:12;;;;;;;19.80;10.63;;;;;;;;;;6188772;28;20081;-59
2023/05/19 07:33:13;;;;;;;19.65;11.60;;;;;;;;;;6186856;28;20822;-59
2023/05/19 07:36:13;;;;;;;20.92;12.10;;;;;;;;;;6185656;28;20042;-59
2023/05/19 07:39:14;;;;;;;21.48;13.27;;;;;;;;;;6184876;28;20548;-59
2023/05/19 07:42:15;;;;;;;28.83;15.55;;;;;;;;;;6185194;28;20046;-59
2023/05/19 07:45:15;;;;;;;20.45;11.95;;;;;;;;;;6185862;28;20047;-59
2023/05/19 07:48:17;;;;;;;20.70;12.40;;;;;;;;;;6186299;28;20042;-59
2023/05/19 07:51:18;;;;;;;20.95;12.85;;;;;;;;;;6185165;28;20122;-59
2023/05/19 07:54:19;;;;;;;21.92;11.07;;;;;;;;;;6184979;28;20042;-59
2023/05/19 07:57:19;;;;;;;18.17;10.80;;;;;;;;;;6182955;28;20387;-59
2023/05/19 08:00:20;;;;;;;20.67;11.57;;;;;;;;;;6183662;28;20066;-58
2023/05/19 08:03:22;;;;;;;18.23;11.50;;;;;;;;;;6186499;28;20053;-58
2023/05/19 08:06:24;;;;;;;16.60;10.73;;;;;;;;;;6187021;28;20042;-60
2023/05/19 08:09:24;;;;;;;18.95;11.40;;;;;;;;;;6185292;28;20494;-59
2023/05/19 08:12:25;;;;;;;21.27;10.93;;;;;;;;;;6187185;28;20148;-59
2023/05/19 08:15:25;;;;;;;20.08;10.55;;;;;;;;;;6186490;28;20687;-60
2023/05/19 08:18:26;;;;;;;18.70;10.65;;;;;;;;;;6184024;28;20064;-59
2023/05/19 08:21:27;;;;;;;20.25;11.35;;;;;;;;;;6185112;28;20046;-60
2023/05/19 08:24:32;;;;;;;20.10;10.57;;;;;;;;;;6186195;28;20409;-59
2023/05/19 08:27:33;;;;;;;16.65;9.75;;;;;;;;;;6183368;28;20401;-60
2023/05/19 08:30:33;;;;;;;19.00;10.85;;;;;;;;;;6185887;28;20137;-59
2023/05/19 08:33:34;;;;;;;27.83;14.82;;;;;;;;;;6186379;28;20639;-60
2023/05/19 08:36:34;;;;;;;20.23;11.85;;;;;;;;;;6186208;28;20065;-60
2023/05/19 08:39:35;;;;;;;20.33;12.85;;;;;;;;;;6183855;28;20046;-59
2023/05/19 08:42:36;;;;;;;27.10;14.70;;;;;;;;;;6184895;28;20049;-58
2023/05/19 08:45:40;;;;;;;21.27;12.45;;;;;;;;;;6185967;28;20042;-60
2023/05/19 08:48:42;;;;;;;21.45;12.73;;;;;;;;;;6184827;28;20050;-59
2023/05/19 08:51:59;;;;;;;19.73;11.60;;;;;;;;;;6187673;28;20425;-59
2023/05/19 08:55:20;;;;;;;19.17;11.48;;;;;;;;;;6186686;28;20408;-60
2023/05/19 08:58:21;;;;;;;23.00;13.30;;;;;;;;;;6185377;28;20050;-60
2023/05/19 09:01:22;;;;;;;21.50;13.52;;;;;;;;;;6181095;28;20072;-59
2023/05/19 09:04:26;;;;;;;33.03;15.80;;;;;;;;;;6184592;28;20051;-59
2023/05/19 09:07:28;;;;;;;23.52;12.95;;;;;;;;;;6183711;28;20060;-59
2023/05/19 09:10:29;;;;;;;36.65;18.70;;;;;;;;;;6183103;28;20064;-60
2023/05/19 09:13:30;;;;;;;22.13;13.18;;;;;;;;;;6185354;28;20145;-59
2023/05/19 09:16:32;;;;;;;25.83;13.70;;;;;;;;;;6187402;28;20042;-59
2023/05/19 09:19:33;;;;;;;27.65;16.20;;;;;;;;;;6187870;28;20425;-60
2023/05/19 09:22:35;;;;;;;22.38;12.77;;;;;;;;;;6183476;28;20116;-59
2023/05/19 09:25:45;;;;;;;21.60;13.40;;;;;;;;;;6181389;28;20038;-59
2023/05/19 09:28:46;;;;;;;27.17;14.38;;;;;;;;;;6183613;28;20050;-59
2023/05/19 09:31:49;;;;;;;23.33;12.18;;;;;;;;;;6183930;28;20109;-60
2023/05/19 09:34:49;;;;;;;24.38;12.40;;;;;;;;;;6184917;28;20505;-59
2023/05/19 09:37:51;;;;;;;21.67;12.70;;;;;;;;;;6185905;28;20062;-59
2023/05/19 09:40:56;;;;;;;21.43;13.30;;;;;;;;;;6186340;28;20046;-60
2023/05/19 09:43:57;;;;;;;23.85;13.15;;;;;;;;;;6187449;28;20563;-58
2023/05/19 09:46:58;;;;;;;25.90;15.35;;;;;;;;;;6187462;28;20050;-59
2023/05/19 09:49:59;;;;;;;22.17;12.10;;;;;;;;;;6186929;28;20054;-59
2023/05/19 09:53:00;;;;;;;22.73;13.15;;;;;;;;;;6186512;28;20617;-58
2023/05/19 09:56:02;;;;;;;19.92;11.98;;;;;;;;;;6188603;28;20038;-59
2023/05/19 09:59:03;;;;;;;20.45;12.68;;;;;;;;;;6188490;28;20060;-64
2023/05/19 10:02:05;;;;;;;22.15;12.20;;;;;;;;;;6186479;28;20051;-60
2023/05/19 10:05:06;;;;;;;28.05;14.23;;;;;;;;;;6187643;28;20161;-59
2023/05/19 10:08:09;;;;;;;26.30;13.50;;;;;;;;;;6189868;28;20054;-59
2023/05/19 10:11:10;;;;;;;25.00;13.20;;;;;;;;;;6187979;28;20311;-58
2023/05/19 10:14:11;;;;;;;20.67;12.50;;;;;;;;;;6187159;28;20061;-60
2023/05/19 10:17:13;;;;;;;19.42;11.80;;;;;;;;;;6187586;28;20047;-58
2023/05/19 10:20:15;;;;;;;22.75;12.80;;;;;;;;;;6185569;28;20055;-59
2023/05/19 10:23:15;;;;;;;23.85;13.25;;;;;;;;;;6188319;28;20054;-59
2023/05/19 10:26:16;;;;;;;23.42;13.05;;;;;;;;;;6188380;28;20065;-59
2023/05/19 10:29:23;;;;;;;23.75;11.75;;;;;;;;;;6188646;28;20049;-59
2023/05/19 10:32:27;;;;;;;25.35;15.43;;;;;;;;;;6185526;28;20051;-58
2023/05/19 10:35:55;;;;;;;24.95;15.18;;;;;;;;;;6189924;28;20573;-58
2023/05/19 10:39:05;;;;;;;20.23;12.02;;;;;;;;;;6187087;28;20058;-59
2023/05/19 10:42:23;;;;;;;26.08;14.63;;;;;;;;;;6188361;28;20100;-59
2023/05/19 10:45:27;;;;;;;20.35;13.35;;;;;;;;;;6188056;28;20682;-59
2023/05/19 10:48:32;;;;;;;25.40;14.23;;;;;;;;;;6187214;28;20408;-59
2023/05/19 10:51:34;;;;;;;24.88;15.43;;;;;;;;;;6189346;28;20046;-58
2023/05/19 10:54:45;;;;;;;24.05;14.48;;;;;;;;;;6185627;28;20107;-58
2023/05/19 10:57:55;;;;;;;24.33;13.93;;;;;;;;;;6186129;28;20046;-58
2023/05/19 11:01:05;;;;;;;25.40;16.08;;;;;;;;;;6189422;28;20042;-59
2023/05/19 11:04:10;;;;;;;20.83;14.23;;;;;;;;;;6186687;28;20042;-59
2023/05/19 11:07:16;;;;;;;26.35;16.02;;;;;;;;;;6186754;28;20046;-59
2023/05/19 11:10:21;;;;;;;30.25;17.85;;;;;;;;;;6177566;28;20050;-59
2023/05/19 11:13:26;;;;;;;22.52;14.40;;;;;;;;;;6177089;28;20096;-59
2023/05/19 11:16:28;;;;;;;22.27;13.57;;;;;;;;;;6177556;28;20050;-56
2023/05/19 11:19:30;;;;;;;25.00;16.23;;;;;;;;;;6186119;28;20050;-59
2023/05/19 11:22:32;;;;;;;25.35;15.70;;;;;;;;;;6185759;28;20056;-58
2023/05/19 11:25:47;;;;;;;20.75;12.40;;;;;;;;;;6183189;28;20054;-57
2023/05/19 11:28:48;;;;;;;23.58;12.85;;;;;;;;;;6184253;28;20061;-58
2023/05/19 11:31:50;;;;;;;20.20;13.55;;;;;;;;;;6185800;28;20045;-59
2023/05/19 11:34:51;;;;;;;22.38;15.40;;;;;;;;;;6191709;28;20056;-61
2023/05/19 11:37:53;;;;;;;25.05;15.50;;;;;;;;;;6196150;28;20309;-59
2023/05/19 11:40:55;;;;;;;22.00;14.45;;;;;;;;;;6192111;28;20489;-60
2023/05/19 11:43:56;;;;;;;18.85;12.73;;;;;;;;;;6189574;28;20148;-58
2023/05/19 11:46:59;;;;;;;17.73;11.90;;;;;;;;;;6193730;28;20790;-58
2023/05/19 11:50:00;;;;;;;17.45;12.35;;;;;;;;;;6189031;28;20149;-59
2023/05/19 11:53:01;;;;;;;18.02;11.05;;;;;;;;;;6197363;28;20160;-59
2023/05/19 11:56:03;;;;;;;20.75;12.07;;;;;;;;;;6196086;28;20054;-57
2023/05/19 11:59:03;;;;;;;;;;;;;;;;;;6191224;28;20058;-59
2023/05/19 12:02:23;;;;;;;15.45;10.45;;;;;;;;;;6190421;28;19922;-60
2023/05/19 12:05:25;;;;;;;20.98;13.43;;;;;;;;;;6185522;28;20145;-60
2023/05/19 12:08:26;;;;;;;25.42;15.18;;;;;;;;;;6186975;28;20050;-60
2023/05/19 12:11:27;;;;;;;26.08;15.43;;;;;;;;;;6196067;28;20059;-67
2023/05/19 12:14:29;;;;;;;18.73;13.13;;;;;;;;;;6189851;28;20045;-61
2023/05/19 12:17:31;;;;;;;24.33;14.07;;;;;;;;;;6188329;28;20548;-59
2023/05/19 12:20:34;;;;;;;19.17;13.85;;;;;;;;;;6189377;28;20042;-61
2023/05/19 12:23:35;;;;;;;20.90;13.40;;;;;;;;;;6195591;28;20065;-60
2023/05/19 12:26:36;;;;;;;20.80;14.97;;;;;;;;;;6185273;28;20409;-56
2023/05/19 12:29:38;;;;;;;19.35;13.65;;;;;;;;;;6182189;28;20049;-67
2023/05/19 12:32:39;;;;;;;30.73;19.00;;;;;;;;;;6184162;28;20054;-57
2023/05/19 12:35:41;;;;;;;21.85;12.15;;;;;;;;;;6182812;28;20425;-62
2023/05/19 12:38:42;;;;;;;18.75;12.88;;;;;;;;;;6182933;28;20050;-57
2023/05/19 12:41:44;;;;;;;17.00;13.00;;;;;;;;;;6183309;28;20521;-57
2023/05/19 12:44:51;;;;;;;22.98;15.20;;;;;;;;;;6180231;28;20050;-59
2023/05/19 12:47:51;;;;;;;17.15;12.73;;;;;;;;;;6185667;28;20042;-60
2023/05/19 12:50:54;;;;;;;22.67;12.32;;;;;;;;;;6187073;28;20460;-59
2023/05/19 12:53:55;;;;;;;16.13;11.57;;;;;;;;;;6187279;28;20054;-56
2023/05/19 12:56:57;;;;;;;17.15;11.68;;;;;;;;;;6187255;28;20034;-57
2023/05/19 13:00:05;;;;;;;19.25;13.15;;;;;;;;;;6187710;28;20873;-59
2023/05/19 13:03:08;;;;;;;17.17;12.50;;;;;;;;;;6186799;28;20050;-58
2023/05/19 13:06:09;;;;;;;21.25;15.23;;;;;;;;;;6184109;28;20087;-58
2023/05/19 13:09:10;;;;;;;18.13;12.93;;;;;;;;;;6184670;28;20490;-68
2023/05/19 13:12:11;;;;;;;16.63;12.88;;;;;;;;;;6186132;28;20058;-57
2023/05/19 13:15:11;;;;;;;17.85;12.52;;;;;;;;;;6187580;28;20079;-61
2023/05/19 13:18:13;;;;;;;15.98;12.43;;;;;;;;;;6200855;28;20133;-58
2023/05/19 13:21:13;;;;;;;16.27;12.50;;;;;;;;;;6193488;28;20176;-61
2023/05/19 13:24:14;;;;;;;17.27;12.35;;;;;;;;;;6194526;28;20460;-59
2023/05/19 13:27:15;;;;;;;13.75;10.60;;;;;;;;;;6195706;28;20051;-61
2023/05/19 13:30:17;;;;;;;14.52;10.63;;;;;;;;;;6192885;28;20042;-58
2023/05/19 13:33:17;;;;;;;15.05;10.55;;;;;;;;;;6195805;28;20077;-59
2023/05/19 13:36:18;;;;;;;17.35;11.82;;;;;;;;;;6195009;28;20506;-56
2023/05/19 13:39:18;;;;;;;21.40;14.40;;;;;;;;;;6193284;28;20113;-57
2023/05/19 13:42:19;;;;;;;17.55;13.38;;;;;;;;;;6196580;28;20126;-56
2023/05/19 13:45:19;;;;;;;19.85;12.88;;;;;;;;;;6202442;28;20504;-58
2023/05/19 13:48:20;;;;;;;18.30;12.77;;;;;;;;;;6194336;28;20042;-60
2023/05/19 13:51:21;;;;;;;24.92;17.52;;;;;;;;;;6214490;28;20057;-57
2023/05/19 13:54:21;;;;;;;19.45;14.68;;;;;;;;;;6194436;28;20472;-58
2023/05/19 13:57:23;;;;;;;17.55;12.20;;;;;;;;;;6194646;28;20043;-59
2023/05/19 14:00:23;;;;;;;15.07;11.93;;;;;;;;;;6192008;28;20056;-58
2023/05/19 14:03:25;;;;;;;17.38;12.77;;;;;;;;;;6193808;28;20288;-56
2023/05/19 14:06:26;;;;;;;16.92;13.48;;;;;;;;;;6193666;28;20520;-60
2023/05/19 14:09:27;;;;;;;20.67;14.47;;;;;;;;;;6193459;28;20786;-60
2023/05/19 14:12:28;;;;;;;17.25;13.02;;;;;;;;;;6194399;28;20353;-59
2023/05/19 14:15:29;;;;;;;18.48;13.90;;;;;;;;;;6193881;28;20096;-61
2023/05/19 14:18:31;;;;;;;21.35;14.60;;;;;;;;;;6193267;28;20052;-59
2023/05/19 14:21:31;;;;;;;18.85;13.20;;;;;;;;;;6193292;28;20065;-58
2023/05/19 14:24:33;;;;;;;20.10;14.52;;;;;;;;;;6192172;28;20456;-63
2023/05/19 14:27:34;;;;;;;21.70;15.35;;;;;;;;;;6193579;28;20514;-60
2023/05/19 14:30:34;;;;;;;24.00;16.70;;;;;;;;;;6191705;28;20039;-60
2023/05/19 14:33:35;;;;;;;22.35;15.05;;;;;;;;;;6194158;28;20057;-57
2023/05/19 14:36:35;;;;;;;20.65;14.70;;;;;;;;;;6192237;28;20046;-56
2023/05/19 14:39:36;;;;;;;28.55;17.20;;;;;;;;;;6176348;28;20074;-58
2023/05/19 14:42:37;;;;;;;24.73;16.88;;;;;;;;;;6185507;28;20061;-60
2023/05/19 14:45:37;;;;;;;23.27;14.98;;;;;;;;;;6184944;28;20834;-59
2023/05/19 14:48:38;;;;;;;23.85;16.42;;;;;;;;;;6181704;28;20046;-56
2023/05/19 14:51:38;;;;;;;21.05;14.30;;;;;;;;;;6183900;28;20047;-57
2023/05/19 14:54:39;;;;;;;28.25;15.45;;;;;;;;;;6185198;28;20497;-59
2023/05/19 14:57:40;;;;;;;24.88;16.98;;;;;;;;;;6184637;28;20078;-54
2023/05/19 15:00:41;;;;;;;32.13;18.27;;;;;;;;;;6182885;28;20047;-61
2023/05/19 15:03:41;;;;;;;25.65;17.20;;;;;;;;;;6185511;28;20058;-58
2023/05/19 15:06:42;;;;;;;22.73;15.50;;;;;;;;;;6184332;28;20051;-57
2023/05/19 15:09:43;;;;;;;24.92;15.80;;;;;;;;;;6181454;28;20050;-57
2023/05/19 15:12:43;;;;;;;19.48;14.40;;;;;;;;;;6185169;28;20164;-58
2023/05/19 15:15:44;;;;;;;24.05;17.13;;;;;;;;;;6185380;28;20066;-53
2023/05/19 15:18:45;;;;;;;25.55;16.85;;;;;;;;;;6182067;28;20145;-56
2023/05/19 15:21:45;;;;;;;24.55;17.17;;;;;;;;;;6183539;28;20052;-59
2023/05/19 15:24:46;;;;;;;22.95;15.77;;;;;;;;;;6185162;28;20062;-59
2023/05/19 15:27:47;;;;;;;19.80;13.85;;;;;;;;;;6181106;28;20050;-63
2023/05/19 15:30:47;;;;;;;22.33;15.23;;;;;;;;;;6183356;28;20469;-59
2023/05/19 15:33:48;;;;;;;24.42;16.02;;;;;;;;;;6184535;28;20054;-58
2023/05/19 15:36:48;;;;;;;25.13;16.98;;;;;;;;;;6183958;28;20062;-58
2023/05/19 15:39:49;;;;;;;25.02;17.58;;;;;;;;;;6180768;28;20050;-59
2023/05/19 15:42:50;;;;;;;26.67;17.23;;;;;;;;;;6183564;28;21697;-58
2023/05/19 15:45:53;;;;;;;29.15;18.48;;;;;;;;;;6180789;28;20038;-60
2023/05/19 15:48:54;;;;;;;32.47;20.23;;;;;;;;;;6177990;28;20057;-60
2023/05/19 15:51:55;;;;;;;29.38;19.10;;;;;;;;;;6180511;28;20535;-58
2023/05/19 15:54:57;;;;;;;28.65;18.27;;;;;;;;;;6186230;28;20046;-60
2023/05/19 15:57:58;;;;;;;29.92;18.23;;;;;;;;;;6181439;28;20085;-61
2023/05/19 16:00:59;;;;;;;31.90;18.65;;;;;;;;;;6183035;28;20046;-59
2023/05/19 16:04:02;;;;;;;31.60;20.17;;;;;;;;;;6182963;28;20104;-60
2023/05/19 16:07:03;;;;;;;32.17;19.90;;;;;;;;;;6182232;28;20180;-61
2023/05/19 16:10:03;;;;;;;25.35;16.55;;;;;;;;;;6179363;28;20081;-69
2023/05/19 16:13:04;;;;;;;29.70;18.23;;;;;;;;;;6183210;28;20058;-58
2023/05/19 16:16:05;;;;;;;30.20;19.45;;;;;;;;;;6183610;28;20085;-61
2023/05/19 16:19:06;;;;;;;28.95;18.38;;;;;;;;;;6177778;28;20054;-58
2023/05/19 16:22:06;;;;;;;26.13;17.30;;;;;;;;;;6179832;28;20081;-58
2023/05/19 16:25:07;;;;;;;25.35;16.95;;;;;;;;;;6175538;28;20591;-59
2023/05/19 16:28:08;;;;;;;24.90;15.90;;;;;;;;;;6173398;28;20057;-57
2023/05/19 16:31:08;;;;;;;30.38;18.05;;;;;;;;;;6180319;28;21029;-60
2023/05/19 16:34:09;;;;;;;35.78;21.70;;;;;;;;;;6180368;28;20889;-59
2023/05/19 16:37:10;;;;;;;31.65;21.15;;;;;;;;;;6176458;28;20085;-60
2023/05/19 16:40:10;;;;;;;31.02;19.33;;;;;;;;;;6176210;28;20046;-59
2023/05/19 16:43:11;;;;;;;29.80;19.25;;;;;;;;;;6178752;28;20070;-60
2023/05/19 16:46:12;;;;;;;27.60;18.45;;;;;;;;;;6177542;28;20100;-59
2023/05/19 16:49:12;;;;;;;31.02;18.67;;;;;;;;;;6177376;28;20516;-60
2023/05/19 16:52:13;;;;;;;27.92;18.13;;;;;;;;;;6176754;28;20615;-58
2023/05/19 16:55:18;;;;;;;31.40;19.27;;;;;;;;;;6174870;28;20153;-59
2023/05/19 16:58:18;;;;;;;46.92;23.85;;;;;;;;;;6181588;28;21389;-60
2023/05/19 17:01:20;;;;;;;41.97;22.98;;;;;;;;;;6184568;28;20050;-58
2023/05/19 17:04:20;;;;;;;40.20;22.77;;;;;;;;;;6181569;28;20042;-59
2023/05/19 17:07:21;;;;;;;36.15;20.80;;;;;;;;;;6181442;28;20176;-58
2023/05/19 17:10:21;;;;;;;31.58;18.63;;;;;;;;;;6177581;28;20047;-57
2023/05/19 17:13:22;;;;;;;34.25;19.00;;;;;;;;;;6179354;28;20270;-59
2023/05/19 17:16:23;;;;;;;33.58;20.55;;;;;;;;;;6181401;28;20128;-57
2023/05/19 17:19:23;;;;;;;29.27;17.50;;;;;;;;;;6179666;28;20566;-60
2023/05/19 17:22:24;;;;;;;26.10;17.27;;;;;;;;;;6183300;28;20046;-59
2023/05/19 17:25:25;;;;;;;29.05;18.70;;;;;;;;;;6183748;28;20062;-55
2023/05/19 17:28:25;;;;;;;27.65;17.65;;;;;;;;;;6177728;28;20065;-59
2023/05/19 17:31:26;;;;;;;26.13;16.52;;;;;;;;;;6181083;28;20161;-60
2023/05/19 17:34:27;;;;;;;30.17;17.83;;;;;;;;;;6179035;28;20077;-58
2023/05/19 17:37:28;;;;;;;35.08;20.58;;;;;;;;;;6179136;28;20084;-58
2023/05/19 17:40:28;;;;;;;35.88;21.40;;;;;;;;;;6178252;28;20054;-55
2023/05/19 17:43:29;;;;;;;31.20;19.15;;;;;;;;;;6179546;28;20038;-60
2023/05/19 17:46:33;;;;;;;34.40;20.80;;;;;;;;;;6180614;28;20425;-59